Time;durP1;ratioP1;P1;durP2;ratioP2;P2;SDS_P1;SDS_P2;PMS_P1;PMS_P2;Temp;Humidity;BMP_temperature;BMP_pressure;BME280_temperature;BME280_humidity;BME280_pressure;Samples;Min_cycle;Max_cycle;Signal;HPM_P1;HPM_P2
2021/08/03 00:01:30;;;;;;;23.32;13.88;;;;;;;22.44;85.69;99667.40;1703773;83;21355;-81
2021/08/03 00:04:45;;;;;;;18.15;12.20;;;;;;;22.44;86.12;99666.53;1703885;84;21323;-81
2021/08/03 00:07:47;;;;;;;20.45;13.43;;;;;;;22.45;86.12;99672.41;1705711;84;21216;-80
2021/08/03 00:10:54;;;;;;;21.77;13.10;;;;;;;22.47;85.65;99671.58;1703998;84;21355;-80
2021/08/03 00:14:00;;;;;;;21.25;12.73;;;;;;;22.44;85.32;99670.71;1703323;84;21351;-80
2021/08/03 00:17:07;;;;;;;27.82;12.65;;;;;;;22.44;85.28;99665.14;1705309;84;21319;-81
2021/08/03 00:20:13;;;;;;;21.62;13.28;;;;;;;22.45;85.40;99666.28;1704603;84;21209;-80
2021/08/03 00:23:18;;;;;;;21.90;13.10;;;;;;;22.45;85.31;99667.67;1705900;84;21311;-81
2021/08/03 00:26:24;;;;;;;22.07;13.55;;;;;;;22.45;85.49;99673.80;1705106;84;22660;-81
2021/08/03 00:29:30;;;;;;;23.18;12.98;;;;;;;22.47;85.93;99666.00;1704836;84;21391;-80
2021/08/03 00:32:37;;;;;;;19.57;12.58;;;;;;;22.52;85.76;99668.81;1705000;84;21312;-81
2021/08/03 00:35:42;;;;;;;24.18;13.45;;;;;;;22.57;85.49;99674.41;1706044;84;21320;-81
2021/08/03 00:38:47;;;;;;;24.65;13.83;;;;;;;22.55;85.30;99667.45;1703757;84;21308;-80
2021/08/03 00:42:06;;;;;;;24.70;13.50;;;;;;;22.54;85.33;99669.95;1704058;84;21895;-81
2021/08/03 00:45:15;;;;;;;24.32;13.60;;;;;;;22.54;85.53;99678.31;1705070;84;21209;-79
2021/08/03 00:48:20;;;;;;;22.37;13.30;;;;;;;22.50;85.07;99675.23;1705093;84;21874;-80
2021/08/03 00:51:30;;;;;;;20.65;11.53;;;;;;;22.48;85.13;99681.60;1703790;84;21871;-80
2021/08/03 00:54:36;;;;;;;20.00;12.50;;;;;;;22.48;85.02;99687.18;1705078;84;21315;-81
2021/08/03 00:57:35;;;;;;;23.22;13.13;;;;;;;22.41;84.71;99683.25;1705889;84;21887;-81
2021/08/03 01:00:42;;;;;;;23.20;12.73;;;;;;;22.38;85.27;99690.74;1704511;83;21970;-80
2021/08/03 01:03:47;;;;;;;20.50;12.73;;;;;;;22.40;85.58;99691.33;1704794;84;21327;-80
2021/08/03 01:07:20;;;;;;;22.65;12.68;;;;;;;22.43;85.63;99690.77;1703738;84;21331;-81
2021/08/03 01:10:48;;;;;;;19.73;12.85;;;;;;;22.46;85.92;99693.59;1703672;84;21887;-81
2021/08/03 01:13:58;;;;;;;24.47;12.60;;;;;;;22.48;86.10;99696.09;1704748;84;21901;-81
2021/08/03 01:17:24;;;;;;;22.40;12.95;;;;;;;22.45;86.18;99695.54;1705075;84;21402;-80
2021/08/03 01:20:36;;;;;;;29.15;13.13;;;;;;;22.52;86.56;99693.89;1705061;84;21327;-81
2021/08/03 01:24:14;;;;;;;24.98;13.45;;;;;;;22.63;86.30;99698.96;1706117;84;21280;-81
2021/08/03 01:27:46;;;;;;;19.23;12.43;;;;;;;22.74;86.03;99704.06;1705070;84;21177;-81
2021/08/03 01:31:00;;;;;;;24.35;14.65;;;;;;;22.85;85.71;99711.34;1703895;84;21229;-81
2021/08/03 01:34:17;;;;;;;22.82;13.30;;;;;;;22.94;85.21;99722.30;1704633;84;21406;-81
2021/08/03 01:37:27;;;;;;;23.52;13.43;;;;;;;22.95;84.85;99728.98;1705075;84;21241;-80
2021/08/03 01:40:35;;;;;;;22.82;13.80;;;;;;;22.90;84.91;99722.00;1704549;84;21281;-80
2021/08/03 01:43:42;;;;;;;23.07;13.18;;;;;;;22.86;85.32;99721.38;1705339;84;21681;-80
2021/08/03 01:46:48;;;;;;;21.40;13.32;;;;;;;22.83;85.70;99717.20;1705034;84;21201;-80
2021/08/03 01:49:55;;;;;;;25.90;13.90;;;;;;;22.83;85.86;99713.02;1705099;84;21352;-81
2021/08/03 01:53:04;;;;;;;22.73;13.75;;;;;;;22.86;85.86;99718.03;1705220;84;21628;-81
2021/08/03 01:56:11;;;;;;;25.82;14.07;;;;;;;22.90;85.83;99721.16;1703836;84;21225;-81
2021/08/03 01:59:17;;;;;;;22.90;14.07;;;;;;;22.89;85.92;99716.70;1705298;84;21361;-80
2021/08/03 02:02:24;;;;;;;23.10;14.53;;;;;;;22.88;85.97;99719.18;1704107;84;21319;-81
2021/08/03 02:05:32;;;;;;;21.00;14.65;;;;;;;22.88;86.17;99723.36;1705416;84;21320;-81
2021/08/03 02:08:40;;;;;;;27.17;14.55;;;;;;;22.91;86.27;99722.83;1705317;84;21217;-80
2021/08/03 02:11:45;;;;;;;28.47;15.75;;;;;;;22.89;86.11;99724.51;1704481;83;21822;-81
2021/08/03 02:14:52;;;;;;;25.80;16.27;;;;;;;22.87;86.33;99728.11;1681787;84;21443;-80
2021/08/03 02:17:58;;;;;;;21.33;14.68;;;;;;;22.86;86.27;99733.94;1681811;84;21335;-81
2021/08/03 02:21:05;;;;;;;25.32;14.73;;;;;;;22.83;86.19;99737.28;1740746;82;21311;-81
2021/08/03 02:24:11;;;;;;;23.30;14.45;;;;;;;22.79;86.18;99741.72;1740808;82;21784;-80
2021/08/03 02:27:18;;;;;;;29.65;16.10;;;;;;;22.76;86.38;99738.06;1739324;82;21922;-80
2021/08/03 02:30:23;;;;;;;28.95;17.10;;;;;;;22.72;86.50;99746.12;1740984;82;21288;-80
2021/08/03 02:33:36;;;;;;;26.97;17.42;;;;;;;22.73;87.01;99744.20;1740567;82;21342;-80
2021/08/03 02:36:55;;;;;;;24.72;16.37;;;;;;;22.75;87.18;99741.97;1740975;82;21319;-81
2021/08/03 02:40:01;;;;;;;;;;;;;;;22.75;87.21;99741.97;1743465;82;21319;-80
2021/08/03 02:43:11;;;;;;;28.80;16.30;;;;;;;22.79;87.14;99736.14;1740025;81;20238;-81
2021/08/03 02:46:21;;;;;;;24.77;15.93;;;;;;;22.83;86.66;99741.47;1740823;82;21303;-80
2021/08/03 02:49:34;;;;;;;25.27;17.05;;;;;;;22.89;86.10;99744.58;1740060;82;21328;-80
2021/08/03 02:52:33;;;;;;;36.50;16.15;;;;;;;22.91;85.76;99743.22;1739067;82;21211;-80
2021/08/03 02:55:48;;;;;;;30.88;16.40;;;;;;;22.94;85.35;99761.34;1740756;82;21265;-80
2021/08/03 02:59:04;;;;;;;27.27;16.48;;;;;;;22.96;85.07;99754.95;1739602;82;21823;-80
2021/08/03 03:02:15;;;;;;;27.32;17.32;;;;;;;23.04;85.01;99746.05;1739255;81;21229;-81
2021/08/03 03:05:35;;;;;;;26.45;16.65;;;;;;;23.15;84.56;99758.11;1739417;82;21335;-81
2021/08/03 03:08:42;;;;;;;26.82;16.15;;;;;;;23.29;84.06;99759.28;1741253;82;21193;-81
2021/08/03 03:11:47;;;;;;;28.55;16.37;;;;;;;23.46;83.38;99761.83;1741132;82;21332;-81
2021/08/03 03:14:53;;;;;;;27.27;17.12;;;;;;;23.59;82.53;99764.66;1740622;82;21225;-81
2021/08/03 03:18:00;;;;;;;20.17;14.78;;;;;;;23.73;81.99;99765.01;1739792;82;21378;-81
2021/08/03 03:21:05;;;;;;;25.48;15.88;;;;;;;23.84;81.45;99766.69;1740735;82;21665;-81
2021/08/03 03:24:11;;;;;;;21.97;15.08;;;;;;;23.95;81.02;99774.83;1740592;82;21320;-81
2021/08/03 03:27:17;;;;;;;26.33;14.87;;;;;;;24.12;80.61;99778.73;1740761;82;21303;-81
2021/08/03 03:30:22;;;;;;;34.25;15.40;;;;;;;24.30;80.03;99780.70;1740477;82;21332;-81
2021/08/03 03:33:30;;;;;;;25.05;16.35;;;;;;;24.39;79.59;99773.46;1739510;82;21885;-81
2021/08/03 03:36:39;;;;;;;27.10;15.85;;;;;;;24.47;79.66;99780.73;1740259;82;21304;-80
2021/08/03 03:39:44;;;;;;;21.37;15.28;;;;;;;24.52;79.72;99772.90;1740359;82;21220;-82
2021/08/03 03:42:51;;;;;;;21.33;15.58;;;;;;;24.58;79.81;99767.56;1740069;82;21228;-81
2021/08/03 03:46:11;;;;;;;25.43;16.20;;;;;;;24.70;79.83;99765.86;1740976;82;21307;-81
2021/08/03 03:49:21;;;;;;;34.83;17.55;;;;;;;24.78;78.95;99763.89;1739549;82;21296;-81
2021/08/03 03:52:28;;;;;;;30.70;18.90;;;;;;;24.93;78.54;99757.41;1740708;82;21217;-81
2021/08/03 03:55:34;;;;;;;28.02;17.75;;;;;;;25.15;77.79;99745.34;1740391;82;21346;-81
2021/08/03 03:58:47;;;;;;;29.87;17.48;;;;;;;25.36;76.88;99745.23;1740740;82;21197;-81
2021/08/03 04:01:52;;;;;;;27.22;16.45;;;;;;;25.47;75.53;99749.67;1739141;81;21272;-81
2021/08/03 04:04:59;;;;;;;38.45;17.10;;;;;;;25.49;74.81;99755.80;1713337;82;21229;-81
2021/08/03 04:08:08;;;;;;;27.87;17.70;;;;;;;25.50;74.71;99750.47;1740699;82;21291;-81
2021/08/03 04:11:16;;;;;;;29.87;16.37;;;;;;;25.44;74.49;99755.84;1739427;81;21197;-81
2021/08/03 04:14:34;;;;;;;27.30;16.97;;;;;;;25.39;74.76;99758.66;1739415;82;21217;-81
2021/08/03 04:17:41;;;;;;;25.85;15.83;;;;;;;25.42;74.98;99766.50;1744641;81;21756;-81
2021/08/03 04:20:48;;;;;;;27.10;13.48;;;;;;;25.53;74.92;99759.70;1753906;82;21354;-80
2021/08/03 04:23:48;;;;;;;21.10;13.25;;;;;;;25.70;74.60;99764.94;1752986;82;21302;-82
2021/08/03 04:26:54;;;;;;;26.90;14.30;;;;;;;25.78;73.48;99769.11;1753935;82;21366;-81
2021/08/03 04:29:59;;;;;;;24.35;14.68;;;;;;;25.82;72.96;99770.20;1753943;82;21367;-80
2021/08/03 04:33:05;;;;;;;26.62;14.03;;;;;;;25.96;72.46;99779.06;1753589;82;22816;-81
2021/08/03 04:36:10;;;;;;;21.05;13.88;;;;;;;26.08;71.79;99782.09;1753924;82;21310;-81
2021/08/03 04:39:16;;;;;;;20.65;13.95;;;;;;;26.13;71.43;99776.44;1753949;82;21307;-81
2021/08/03 04:42:22;;;;;;;26.93;14.20;;;;;;;26.16;71.10;99779.50;1752550;82;21224;-81
2021/08/03 04:45:28;;;;;;;22.58;12.50;;;;;;;26.17;70.74;99788.17;1754057;82;21331;-81
2021/08/03 04:48:34;;;;;;;26.33;14.70;;;;;;;26.07;69.82;99783.22;1754655;82;21318;-81
2021/08/03 04:51:33;;;;;;;18.02;12.25;;;;;;;25.98;69.86;99781.03;1753893;82;21302;-81
2021/08/03 04:54:25;;;;;;;22.65;13.05;;;;;;;25.99;69.63;99779.06;1752775;82;21385;-81
2021/08/03 04:57:30;;;;;;;20.43;13.93;;;;;;;26.04;69.04;99786.03;1752508;82;21362;-81
2021/08/03 05:00:36;;;;;;;22.40;13.38;;;;;;;26.14;68.99;99783.71;1753494;80;21342;-81
2021/08/03 05:03:41;;;;;;;21.00;12.85;;;;;;;26.33;69.25;99769.82;1754918;80;21311;-81
2021/08/03 05:06:46;;;;;;;19.85;10.03;;;;;;;26.50;67.85;99768.30;1783258;80;21181;-81
2021/08/03 05:09:52;;;;;;;20.05;10.68;;;;;;;26.65;66.24;99773.48;1783878;80;21772;-81
2021/08/03 05:12:59;;;;;;;18.23;11.97;;;;;;;26.73;65.55;99775.66;1744471;82;21358;-83
2021/08/03 05:16:20;;;;;;;22.48;11.68;;;;;;;26.84;65.51;99780.02;1716825;83;21368;-81
2021/08/03 05:19:32;;;;;;;30.97;14.98;;;;;;;26.97;64.56;99788.30;1743378;82;21212;-81
2021/08/03 05:22:47;;;;;;;30.85;16.20;;;;;;;27.04;64.04;99782.33;1738429;82;21318;-81
2021/08/03 05:25:53;;;;;;;33.13;15.45;;;;;;;27.11;63.82;99779.47;1730082;82;21299;-81
2021/08/03 05:28:59;;;;;;;27.15;15.13;;;;;;;27.20;63.61;99767.86;1708468;83;21292;-82
2021/08/03 05:32:05;;;;;;;31.25;17.05;;;;;;;27.36;63.83;99781.69;1707675;82;21824;-81
2021/08/03 05:35:12;;;;;;;28.80;16.65;;;;;;;27.44;63.13;99781.86;1717615;83;21296;-81
2021/08/03 05:38:18;;;;;;;27.13;15.08;;;;;;;27.46;62.33;99783.79;1716964;83;21815;-81
2021/08/03 05:41:25;;;;;;;29.85;14.55;;;;;;;27.43;62.65;99786.36;1717548;83;21232;-80
2021/08/03 05:44:30;;;;;;;24.75;13.65;;;;;;;27.44;63.08;99785.24;1719274;83;21307;-81
2021/08/03 05:47:37;;;;;;;21.95;11.63;;;;;;;27.44;63.39;99788.05;1719351;83;21299;-80
2021/08/03 05:50:43;;;;;;;19.48;12.05;;;;;;;27.42;63.66;99786.92;1717629;83;21227;-81
2021/08/03 05:53:48;;;;;;;24.80;12.20;;;;;;;27.38;62.35;99799.89;1716551;83;21712;-81
2021/08/03 05:56:54;;;;;;;20.68;11.68;;;;;;;27.29;63.63;99799.45;1710051;83;21320;-81
2021/08/03 06:00:00;;;;;;;24.00;13.08;;;;;;;27.30;63.97;99791.32;1716545;83;21224;-80
2021/08/03 06:03:05;;;;;;;23.60;12.47;;;;;;;27.28;63.79;99785.16;1719828;83;21327;-80
2021/08/03 06:06:16;;;;;;;25.08;13.50;;;;;;;27.26;64.08;99775.06;1717219;81;21301;-81
2021/08/03 06:09:21;;;;;;;27.37;13.60;;;;;;;27.31;64.66;99782.59;1717550;83;21303;-81
2021/08/03 06:12:28;;;;;;;28.55;14.58;;;;;;;27.36;64.20;99780.29;1718155;82;21767;-81
2021/08/03 06:15:33;;;;;;;24.75;13.62;;;;;;;27.42;62.75;99794.52;1717154;83;21310;-82
2021/08/03 06:18:44;;;;;;;26.10;13.28;;;;;;;27.41;62.82;99793.69;1715864;83;21224;-83
2021/08/03 06:21:50;;;;;;;23.57;12.40;;;;;;;27.49;62.21;99782.37;1735741;82;22075;-80
2021/08/03 06:24:55;;;;;;;20.75;12.25;;;;;;;27.60;61.91;99789.50;1745999;82;21180;-80
2021/08/03 06:28:01;;;;;;;24.47;12.00;;;;;;;27.67;61.28;99788.58;1744221;82;21291;-80
2021/08/03 06:31:06;;;;;;;17.80;11.38;;;;;;;27.72;62.04;99794.16;1744904;82;21181;-79
2021/08/03 06:34:11;;;;;;;17.87;10.93;;;;;;;27.83;61.68;99791.19;1744761;82;21287;-80
2021/08/03 06:37:16;;;;;;;32.88;12.10;;;;;;;27.93;61.69;99796.66;1730450;82;21314;-79
2021/08/03 06:40:22;;;;;;;19.05;11.75;;;;;;;28.03;60.70;99800.72;1718348;82;21856;-80
2021/08/03 06:43:31;;;;;;;19.20;10.88;;;;;;;28.05;59.76;99798.45;1746265;82;21190;-79
2021/08/03 06:46:37;;;;;;;18.85;11.57;;;;;;;28.11;59.54;99788.79;1741051;82;21338;-80
2021/08/03 06:49:48;;;;;;;18.50;12.35;;;;;;;28.21;59.60;99787.79;1735836;82;21236;-80
2021/08/03 06:52:54;;;;;;;24.57;11.48;;;;;;;28.26;59.57;99794.16;1744141;82;21334;-80
2021/08/03 06:56:00;;;;;;;23.90;11.78;;;;;;;28.34;58.80;99806.73;1745521;82;21354;-80
2021/08/03 06:59:11;;;;;;;18.92;11.18;;;;;;;28.43;58.45;99813.33;1745847;82;21295;-81
2021/08/03 07:02:16;;;;;;;26.02;11.60;;;;;;;28.56;59.31;99814.53;1740091;82;21291;-80
2021/08/03 07:05:24;;;;;;;20.30;10.13;;;;;;;28.65;57.49;99813.23;1745234;82;21803;-80
2021/08/03 07:08:31;;;;;;;21.82;11.28;;;;;;;28.70;58.08;99818.22;1734407;82;21809;-80
2021/08/03 07:11:36;;;;;;;19.92;11.40;;;;;;;28.81;57.98;99820.84;1744532;82;21279;-80
2021/08/03 07:14:42;;;;;;;21.70;11.80;;;;;;;28.93;57.07;99823.97;1744466;82;21165;-80
2021/08/03 07:17:49;;;;;;;15.78;11.05;;;;;;;29.02;56.61;99828.61;1739390;82;21244;-80
2021/08/03 07:20:54;;;;;;;17.77;11.25;;;;;;;29.05;55.93;99826.34;1730054;82;21336;-80
2021/08/03 07:24:04;;;;;;;27.95;10.35;;;;;;;29.05;55.93;99826.34;1730792;82;21302;-80
2021/08/03 07:27:09;;;;;;;18.60;11.07;;;;;;;28.93;57.17;99840.86;1715751;83;21257;-80
2021/08/03 07:30:16;;;;;;;32.98;12.43;;;;;;;28.91;57.36;99857.24;1757514;80;21247;-80
2021/08/03 07:33:22;;;;;;;24.27;13.35;;;;;;;28.94;57.34;99848.19;1769731;81;21362;-80
2021/08/03 07:36:30;;;;;;;26.80;13.10;;;;;;;28.97;57.55;99848.41;1766643;81;21287;-80
2021/08/03 07:39:36;;;;;;;18.77;12.40;;;;;;;28.98;57.54;99852.92;1764448;81;21189;-81
2021/08/03 07:42:43;;;;;;;22.32;13.55;;;;;;;28.99;57.27;99850.94;1767028;79;21212;-81
2021/08/03 07:45:50;;;;;;;36.58;14.78;;;;;;;29.03;57.19;99847.77;1769497;81;21280;-80
2021/08/03 07:48:55;;;;;;;26.17;13.38;;;;;;;29.03;57.19;99847.77;1765370;81;21162;-80
2021/08/03 07:52:02;;;;;;;23.22;14.47;;;;;;;28.99;57.13;99846.72;1769333;81;21276;-81
2021/08/03 07:55:09;;;;;;;25.05;13.25;;;;;;;28.93;57.34;99854.94;1767070;81;21881;-80
2021/08/03 07:58:14;;;;;;;24.90;14.18;;;;;;;28.82;57.79;99857.69;1768440;81;21280;-80
2021/08/03 08:01:20;;;;;;;26.35;13.18;;;;;;;28.78;58.11;99849.84;1754530;81;21299;-80
2021/08/03 08:04:26;;;;;;;22.75;12.03;;;;;;;28.78;58.25;99844.80;1766564;81;21875;-81
2021/08/03 08:07:33;;;;;;;20.48;11.63;;;;;;;28.83;57.33;99841.05;1769654;81;22455;-81
2021/08/03 08:10:39;;;;;;;26.87;11.88;;;;;;;29.08;56.26;99835.55;1767317;80;21157;-81
2021/08/03 08:13:45;;;;;;;21.68;11.05;;;;;;;29.08;56.26;99835.55;1719769;82;21169;-80
2021/08/03 08:16:51;;;;;;;16.65;11.45;;;;;;;29.20;56.39;99832.49;1761228;81;21253;-80
2021/08/03 08:19:58;;;;;;;24.00;11.75;;;;;;;29.34;57.22;99829.69;1768446;80;21208;-82
2021/08/03 08:23:04;;;;;;;19.23;10.55;;;;;;;29.42;57.37;99836.59;1711581;82;21866;-81
2021/08/03 08:26:10;;;;;;;20.25;10.60;;;;;;;29.41;56.87;99847.02;1729944;82;21272;-81
2021/08/03 08:29:19;;;;;;;24.57;10.72;;;;;;;29.33;56.87;99845.50;1769041;81;21288;-82
2021/08/03 08:32:24;;;;;;;18.00;10.03;;;;;;;29.21;56.70;99851.63;1768275;81;21299;-82
2021/08/03 08:35:30;;;;;;;19.95;9.70;;;;;;;29.12;56.25;99854.33;1770124;81;21244;-81
2021/08/03 08:38:34;;;;;;;19.37;9.43;;;;;;;29.10;56.80;99855.22;1769599;79;21281;-81
2021/08/03 08:41:41;;;;;;;14.47;8.58;;;;;;;29.13;56.69;99847.58;1733200;82;21283;-81
2021/08/03 08:44:48;;;;;;;15.60;9.00;;;;;;;29.27;56.36;99849.83;1771137;81;21288;-81
2021/08/03 08:47:55;;;;;;;16.87;9.35;;;;;;;29.47;56.32;99851.97;1763266;79;21291;-81
2021/08/03 08:51:01;;;;;;;11.88;8.50;;;;;;;29.72;55.95;99850.05;1765169;81;21299;-81
2021/08/03 08:54:08;;;;;;;17.17;8.18;;;;;;;29.86;55.83;99847.79;1726070;81;21330;-81
2021/08/03 08:57:16;;;;;;;14.20;8.20;;;;;;;29.75;54.84;99840.14;1732717;82;21176;-81
2021/08/03 09:00:22;;;;;;;13.98;8.40;;;;;;;29.63;54.78;99827.14;1769090;79;22358;-81
2021/08/03 09:03:28;;;;;;;15.25;8.23;;;;;;;29.49;55.60;99824.30;1761255;81;21173;-81
2021/08/03 09:06:34;;;;;;;23.18;9.00;;;;;;;29.36;55.87;99822.32;1765288;81;21170;-80
2021/08/03 09:09:54;;;;;;;19.75;8.20;;;;;;;29.24;56.22;99819.46;1728517;82;21185;-81
2021/08/03 09:13:12;;;;;;;11.73;7.85;;;;;;;29.16;56.91;99824.41;1767477;81;21827;-81
2021/08/03 09:16:17;;;;;;;13.38;7.33;;;;;;;29.18;56.55;99822.12;1765034;81;21295;-81
2021/08/03 09:19:47;;;;;;;23.80;8.45;;;;;;;29.26;56.18;99825.60;1756334;81;21256;-82
2021/08/03 09:22:56;;;;;;;14.83;7.92;;;;;;;29.35;55.03;99827.13;1765565;80;21276;-81
2021/08/03 09:26:04;;;;;;;17.85;7.75;;;;;;;29.39;55.31;99834.38;1766320;81;21247;-81
2021/08/03 09:29:14;;;;;;;11.88;7.08;;;;;;;29.38;54.78;99831.31;1764062;81;21284;-81
2021/08/03 09:32:22;;;;;;;13.00;8.03;;;;;;;29.43;55.17;99835.43;1770027;81;21610;-81
2021/08/03 09:35:29;;;;;;;21.50;9.20;;;;;;;29.50;54.49;99841.46;1760213;81;21280;-81
2021/08/03 09:38:34;;;;;;;11.95;8.23;;;;;;;29.52;53.65;99842.00;1757143;81;21867;-81
2021/08/03 09:41:52;;;;;;;17.00;7.42;;;;;;;29.47;53.96;99849.16;1768072;81;21166;-82
2021/08/03 09:45:07;;;;;;;33.42;8.78;;;;;;;29.51;53.31;99841.75;1766940;81;21273;-81
2021/08/03 09:48:25;;;;;;;14.10;7.60;;;;;;;29.51;53.31;99841.75;1745308;81;21221;-81
2021/08/03 09:51:31;;;;;;;18.25;8.08;;;;;;;29.56;53.35;99830.98;1770513;81;21176;-81
2021/08/03 09:54:36;;;;;;;16.15;7.87;;;;;;;29.60;53.37;99815.95;1769652;81;21315;-81
2021/08/03 09:57:42;;;;;;;24.00;8.83;;;;;;;29.60;53.37;99815.95;1749177;81;21315;-82
2021/08/03 10:00:49;;;;;;;19.23;8.55;;;;;;;29.72;52.82;99809.76;1748577;81;21280;-82
2021/08/03 10:03:54;;;;;;;15.03;7.50;;;;;;;29.72;52.82;99809.76;1755380;81;21265;-81
2021/08/03 10:07:01;;;;;;;14.35;8.00;;;;;;;29.82;52.23;99805.88;1770383;80;21760;-81
2021/08/03 10:10:06;;;;;;;18.70;8.75;;;;;;;29.86;52.06;99802.11;1767667;81;21855;-81
2021/08/03 10:13:13;;;;;;;16.35;8.20;;;;;;;29.92;51.96;99797.18;1764664;79;21228;-81
2021/08/03 10:16:19;;;;;;;19.35;7.58;;;;;;;30.04;52.21;99808.75;1768527;81;21284;-81
2021/08/03 10:19:26;;;;;;;28.12;7.40;;;;;;;30.18;52.12;99812.97;1720053;82;21154;-79
2021/08/03 10:22:38;;;;;;;15.20;6.95;;;;;;;30.34;51.95;99809.18;1771366;81;21295;-80
2021/08/03 10:25:48;;;;;;;16.52;7.42;;;;;;;30.40;52.07;99814.40;1733946;82;21213;-81
2021/08/03 10:28:54;;;;;;;28.35;7.92;;;;;;;30.43;49.62;99811.50;1714835;82;21351;-81
2021/08/03 10:32:00;;;;;;;11.85;7.10;;;;;;;30.38;49.07;99813.03;1770805;81;21891;-80
2021/08/03 10:35:06;;;;;;;21.85;7.60;;;;;;;30.31;49.54;99799.39;1734535;82;21102;-81
2021/08/03 10:38:12;;;;;;;14.58;7.03;;;;;;;30.28;50.48;99782.52;1770586;81;21810;-81
2021/08/03 10:41:18;;;;;;;14.03;7.35;;;;;;;30.29;50.80;99777.12;1764971;81;22496;-81
2021/08/03 10:44:48;;;;;;;19.82;7.55;;;;;;;30.33;50.49;99799.06;1766263;81;21875;-80
2021/08/03 10:47:52;;;;;;;14.47;7.53;;;;;;;30.29;49.46;99799.69;1746102;81;21767;-80
2021/08/03 10:50:58;;;;;;;14.85;7.70;;;;;;;30.13;49.39;99784.31;1765093;81;21307;-81
2021/08/03 10:54:19;;;;;;;21.35;7.30;;;;;;;29.98;50.48;99787.47;1765247;81;21427;-81
2021/08/03 10:57:24;;;;;;;15.10;6.90;;;;;;;29.82;51.03;99796.02;1766628;81;21279;-81
2021/08/03 11:00:30;;;;;;;11.18;6.60;;;;;;;29.67;51.43;99799.43;1766432;81;21823;-81
2021/08/03 11:03:46;;;;;;;22.77;7.33;;;;;;;29.49;51.92;99809.64;1766634;81;21321;-81
2021/08/03 11:06:51;;;;;;;20.35;7.58;;;;;;;29.34;51.90;99796.47;1768643;81;21193;-80
2021/08/03 11:09:57;;;;;;;17.80;7.33;;;;;;;29.17;51.89;99792.30;1733135;82;21287;-81
2021/08/03 11:13:03;;;;;;;14.95;6.97;;;;;;;29.12;52.85;99796.60;1771275;81;21221;-81
2021/08/03 11:16:08;;;;;;;22.02;8.05;;;;;;;29.12;52.97;99793.79;1734514;82;21178;-80
2021/08/03 11:19:13;;;;;;;12.10;7.20;;;;;;;29.09;52.43;99787.39;1770944;81;21181;-80
2021/08/03 11:22:19;;;;;;;15.50;6.72;;;;;;;28.97;53.45;99756.09;1721009;82;21177;-80
2021/08/03 11:25:25;;;;;;;13.32;7.42;;;;;;;28.97;53.45;99756.09;1770443;80;21199;-80
2021/08/03 11:28:31;;;;;;;19.30;7.78;;;;;;;28.84;53.47;99752.66;1784954;80;21767;-81
2021/08/03 11:32:00;;;;;;;15.53;7.28;;;;;;;28.67;54.21;99787.87;1776460;80;21845;-81
2021/08/03 11:35:04;;;;;;;18.07;7.37;;;;;;;28.46;55.24;99801.45;1725491;83;22628;-80
2021/08/03 11:38:13;;;;;;;12.18;6.85;;;;;;;28.20;56.50;99817.89;1725389;83;21321;-81
2021/08/03 11:41:17;;;;;;;17.37;7.45;;;;;;;28.20;56.50;99817.89;1775524;80;21266;-81
2021/08/03 11:44:27;;;;;;;14.05;7.85;;;;;;;28.11;57.40;99835.17;1780012;80;21181;-81
2021/08/03 11:47:37;;;;;;;13.53;7.47;;;;;;;27.99;58.29;99840.41;1747824;82;21709;-81
2021/08/03 11:50:43;;;;;;;12.77;6.23;;;;;;;27.86;59.19;99859.45;1697809;83;21306;-82
2021/08/03 11:53:50;;;;;;;11.18;5.80;;;;;;;27.72;60.13;99874.23;1746390;82;21317;-81
2021/08/03 11:56:57;;;;;;;12.50;6.08;;;;;;;27.61;60.89;99867.59;1746454;82;21160;-82
2021/08/03 12:00:19;;;;;;;15.70;6.37;;;;;;;27.48;61.39;99860.17;1717641;83;21778;-81
2021/08/03 12:03:41;;;;;;;10.78;5.85;;;;;;;27.34;61.37;99842.38;1700086;84;21202;-81
2021/08/03 12:06:47;;;;;;;8.33;5.20;;;;;;;27.18;61.26;99834.67;1700067;84;21347;-81
2021/08/03 12:09:55;;;;;;;8.53;5.65;;;;;;;27.01;62.10;99844.94;1699134;84;21348;-81
2021/08/03 12:13:00;;;;;;;7.15;5.37;;;;;;;26.91;63.24;99863.83;1705978;83;21225;-80
2021/08/03 12:16:07;;;;;;;9.48;5.65;;;;;;;26.80;63.78;99856.66;1729688;83;21304;-80
2021/08/03 12:19:13;;;;;;;13.10;6.03;;;;;;;26.73;64.09;99852.23;1747999;82;21340;-80
2021/08/03 12:22:35;;;;;;;11.18;7.00;;;;;;;26.66;64.38;99837.69;1727071;82;21299;-80
2021/08/03 12:25:54;;;;;;;10.60;6.50;;;;;;;26.57;64.36;99818.99;1745195;82;21220;-81
2021/08/03 12:29:01;;;;;;;12.67;6.97;;;;;;;26.34;64.10;99809.34;1734806;82;21229;-81
2021/08/03 12:32:07;;;;;;;12.85;6.53;;;;;;;26.34;64.10;99809.34;1734790;82;22171;-81
2021/08/03 12:35:20;;;;;;;9.58;6.47;;;;;;;26.25;64.96;99819.80;1733181;82;21756;-81
2021/08/03 12:38:26;;;;;;;19.35;6.75;;;;;;;26.18;65.26;99817.87;1734518;82;21328;-81
2021/08/03 12:41:32;;;;;;;12.73;6.83;;;;;;;26.13;65.48;99838.93;1732980;82;21868;-81
2021/08/03 12:44:40;;;;;;;13.28;7.53;;;;;;;26.10;66.15;99843.70;1734391;82;21793;-81
2021/08/03 12:47:47;;;;;;;10.23;7.28;;;;;;;26.06;66.21;99845.41;1741533;82;21195;-81
2021/08/03 12:50:56;;;;;;;10.93;7.62;;;;;;;26.04;66.39;99847.67;1703806;84;22634;-81
2021/08/03 12:54:23;;;;;;;11.70;6.28;;;;;;;26.03;66.69;99843.20;1734624;83;21197;-81
2021/08/03 12:57:28;;;;;;;15.32;6.70;;;;;;;26.02;66.85;99848.55;1734020;83;21790;-81
2021/08/03 13:00:46;;;;;;;15.53;7.33;;;;;;;26.00;66.97;99863.39;1729324;83;21321;-81
2021/08/03 13:03:54;;;;;;;11.83;5.75;;;;;;;26.03;66.81;99874.59;1723816;83;21178;-82
2021/08/03 13:07:01;;;;;;;40.65;24.82;;;;;;;26.07;66.61;99894.75;1730127;83;21297;-81
2021/08/03 13:10:08;;;;;;;52.00;34.27;;;;;;;26.12;66.35;99905.92;1704596;84;21209;-81
2021/08/03 13:13:15;;;;;;;53.60;34.92;;;;;;;26.16;66.13;99901.42;1729732;83;21177;-80
2021/08/03 13:16:22;;;;;;;184.13;114.10;;;;;;;26.21;66.23;99892.98;1731954;82;21243;-81
2021/08/03 13:19:27;;;;;;;102.00;71.05;;;;;;;26.29;66.31;99883.66;1703844;84;21756;-81
2021/08/03 13:22:33;;;;;;;87.95;56.68;;;;;;;26.42;65.91;99901.24;1704286;84;21202;-81
2021/08/03 13:25:38;;;;;;;28.83;20.35;;;;;;;26.62;65.66;99899.71;1704575;84;21911;-81
2021/08/03 13:28:44;;;;;;;10.40;7.55;;;;;;;26.90;64.45;99893.86;1695969;84;21281;-81
2021/08/03 13:31:51;;;;;;;18.90;7.55;;;;;;;27.15;62.76;99890.02;1695558;84;21367;-81
2021/08/03 13:34:57;;;;;;;6.97;5.60;;;;;;;27.35;62.33;99904.41;1697486;84;21383;-81
2021/08/03 13:38:02;;;;;;;26.73;13.70;;;;;;;27.44;60.33;99908.81;1697183;84;21737;-81
2021/08/03 13:41:07;;;;;;;20.75;12.15;;;;;;;27.28;61.81;99915.70;1697055;84;21829;-81
2021/08/03 13:44:14;;;;;;;24.82;12.63;;;;;;;26.84;63.58;99916.66;1697288;84;21737;-80
2021/08/03 13:47:24;;;;;;;21.52;12.90;;;;;;;26.32;65.22;99909.73;1708865;83;21181;-81
2021/08/03 13:50:33;;;;;;;16.32;9.85;;;;;;;25.98;66.61;99900.68;1715590;83;21209;-81
2021/08/03 13:53:51;;;;;;;15.72;9.35;;;;;;;25.78;66.66;99907.76;1708185;83;21283;-81
2021/08/03 13:56:55;;;;;;;13.22;8.85;;;;;;;25.52;66.53;99914.83;1715260;83;21837;-81
2021/08/03 14:00:00;;;;;;;15.83;8.60;;;;;;;25.24;66.58;99910.14;1707524;83;21334;-81
2021/08/03 14:03:05;;;;;;;12.40;8.65;;;;;;;25.09;66.87;99913.53;1750243;81;21355;-81
2021/08/03 14:06:11;;;;;;;12.10;7.22;;;;;;;24.98;66.82;99923.84;1751033;81;21244;-81
2021/08/03 14:09:17;;;;;;;14.13;7.60;;;;;;;24.99;67.25;99924.15;1753322;81;21165;-81
2021/08/03 14:12:24;;;;;;;11.65;7.28;;;;;;;25.04;66.45;99920.51;1749880;81;21303;-81
2021/08/03 14:15:30;;;;;;;11.10;7.60;;;;;;;25.04;66.16;99927.50;1762358;81;21166;-80
2021/08/03 14:18:36;;;;;;;9.55;6.60;;;;;;;25.08;66.32;99925.30;1769847;81;21229;-81
2021/08/03 14:21:47;;;;;;;11.57;6.83;;;;;;;25.10;66.44;99921.64;1758611;81;21689;-81
2021/08/03 14:24:52;;;;;;;12.70;7.95;;;;;;;25.14;66.55;99920.52;1771355;81;21300;-81
2021/08/03 14:27:57;;;;;;;12.60;7.08;;;;;;;25.10;66.69;99920.80;1771215;79;21302;-81